Time;durP1;ratioP1;P1;durP2;ratioP2;P2;SDS_P1;SDS_P2;PMS_P1;PMS_P2;Temp;Humidity;BMP_temperature;BMP_pressure;BME280_temperature;BME280_humidity;BME280_pressure;Samples;Min_cycle;Max_cycle;Signal;HPM_P1;HPM_P2
2023/08/13 00:02:00;;;;;;;7.20;6.53;;;19.10;99.90;;;;;;5082455;28;20835;-66
2023/08/13 00:04:27;;;;;;;10.47;7.73;;;19.10;99.90;;;;;;5088357;28;20470;-66
2023/08/13 00:06:54;;;;;;;9.30;6.80;;;19.10;99.90;;;;;;5078980;28;20457;-66
2023/08/13 00:09:21;;;;;;;7.87;6.13;;;19.00;99.90;;;;;;5088182;28;20861;-66
2023/08/13 00:11:47;;;;;;;11.03;6.80;;;19.00;99.90;;;;;;5087940;28;20548;-67
2023/08/13 00:14:16;;;;;;;12.23;5.80;;;18.90;99.90;;;;;;5088544;28;20549;-66
2023/08/13 00:16:44;;;;;;;9.23;7.00;;;18.90;99.90;;;;;;5087080;28;20824;-66
2023/08/13 00:19:10;;;;;;;6.97;6.37;;;18.90;99.90;;;;;;5088329;28;20457;-67
2023/08/13 00:21:37;;;;;;;8.47;7.77;;;18.90;99.90;;;;;;5087878;28;20461;-66
2023/08/13 00:24:05;;;;;;;7.93;7.17;;;18.90;99.90;;;;;;5086407;28;20833;-67
2023/08/13 00:26:32;;;;;;;7.90;6.20;;;18.90;99.90;;;;;;5086583;28;20545;-66
2023/08/13 00:28:59;;;;;;;9.30;7.17;;;18.80;99.90;;;;;;5084277;28;20491;-67
2023/08/13 00:31:27;;;;;;;9.37;6.87;;;18.80;99.90;;;;;;5076997;28;20450;-67
2023/08/13 00:33:54;;;;;;;10.40;7.53;;;18.80;99.90;;;;;;5084562;28;20451;-67
2023/08/13 00:36:21;;;;;;;8.47;7.13;;;18.80;99.90;;;;;;5086879;28;20898;-66
2023/08/13 00:38:47;;;;;;;8.33;7.43;;;18.80;99.90;;;;;;5087936;28;20464;-66
2023/08/13 00:41:14;;;;;;;15.37;7.37;;;18.80;99.90;;;;;;5087943;28;20458;-67
2023/08/13 00:43:41;;;;;;;10.80;7.63;;;18.70;99.90;;;;;;5087985;28;20544;-66
2023/08/13 00:46:09;;;;;;;9.07;6.57;;;18.70;99.90;;;;;;5086718;28;20854;-67
2023/08/13 00:48:39;;;;;;;7.10;6.50;;;18.70;99.90;;;;;;5088082;28;20476;-67
2023/08/13 00:51:07;;;;;;;9.13;6.70;;;18.70;99.90;;;;;;5085958;28;20545;-67
2023/08/13 00:53:40;;;;;;;7.77;7.07;;;18.60;99.90;;;;;;5088310;28;20448;-67
2023/08/13 00:56:07;;;;;;;7.40;6.77;;;18.60;99.90;;;;;;5086794;28;20488;-67
2023/08/13 00:58:34;;;;;;;7.10;5.30;;;18.60;99.90;;;;;;5088186;28;20455;-67
2023/08/13 01:01:01;;;;;;;6.57;5.87;;;18.50;99.90;;;;;;5084890;28;20452;-66
2023/08/13 01:03:27;;;;;;;7.87;7.00;;;18.50;99.90;;;;;;5087424;28;20454;-66
2023/08/13 01:06:08;;;;;;;10.33;6.20;;;18.50;99.90;;;;;;5081465;28;20481;-66
2023/08/13 01:08:42;;;;;;;7.87;6.70;;;18.40;99.90;;;;;;5087505;28;20801;-67
2023/08/13 01:11:19;;;;;;;7.83;6.50;;;18.40;99.90;;;;;;5088596;28;20454;-67
2023/08/13 01:13:54;;;;;;;6.60;6.10;;;18.40;99.90;;;;;;5091697;28;20449;-66
2023/08/13 01:16:22;;;;;;;7.07;6.47;;;18.30;99.90;;;;;;5089270;28;20568;-66
2023/08/13 01:18:49;;;;;;;8.67;6.67;;;18.30;99.90;;;;;;5091560;28;20456;-66
2023/08/13 01:21:18;;;;;;;7.00;6.40;;;18.30;99.90;;;;;;5086689;28;20544;-67
2023/08/13 01:23:46;;;;;;;10.07;6.07;;;18.20;99.90;;;;;;5090844;28;20543;-66
2023/08/13 01:26:18;;;;;;;7.13;6.43;;;18.20;99.90;;;;;;5090803;28;20548;-66
2023/08/13 01:28:53;;;;;;;8.13;6.30;;;18.20;99.90;;;;;;5088888;28;20545;-67
2023/08/13 01:31:25;;;;;;;6.03;5.30;;;18.10;99.90;;;;;;5091711;28;20453;-67
2023/08/13 01:33:53;;;;;;;7.63;6.43;;;18.10;99.90;;;;;;5090617;28;20543;-66
2023/08/13 01:36:21;;;;;;;8.67;7.37;;;18.10;99.90;;;;;;5090554;28;20511;-66
2023/08/13 01:38:51;;;;;;;8.90;5.90;;;18.10;99.90;;;;;;5089309;28;20519;-66
2023/08/13 01:41:17;;;;;;;10.63;5.80;;;18.00;99.90;;;;;;5091158;28;20533;-67
2023/08/13 01:43:44;;;;;;;6.97;6.20;;;18.00;99.90;;;;;;5087460;28;20564;-66
2023/08/13 01:46:11;;;;;;;6.57;5.97;;;18.00;99.90;;;;;;5090512;28;20527;-66
2023/08/13 01:48:38;;;;;;;11.17;6.00;;;17.90;99.90;;;;;;5090309;28;20537;-66
2023/08/13 01:51:05;;;;;;;8.83;6.33;;;17.90;99.90;;;;;;5086212;28;20966;-67
2023/08/13 01:53:32;;;;;;;7.10;6.50;;;17.90;99.90;;;;;;5076226;28;20446;-66
2023/08/13 01:56:00;;;;;;;7.27;6.57;;;17.90;99.90;;;;;;5090110;28;20563;-66
2023/08/13 01:58:27;;;;;;;12.20;6.10;;;17.80;99.90;;;;;;5090484;28;20568;-67
2023/08/13 02:00:54;;;;;;;8.53;6.37;;;17.80;99.90;;;;;;5082671;28;20524;-67
2023/08/13 02:03:20;;;;;;;7.07;6.57;;;17.80;99.90;;;;;;5090257;28;20533;-67
2023/08/13 02:05:47;;;;;;;6.23;5.73;;;17.70;99.90;;;;;;5090471;28;20557;-66
2023/08/13 02:08:14;;;;;;;7.70;7.00;;;17.70;99.90;;;;;;5078276;28;20981;-66
2023/08/13 02:10:41;;;;;;;7.40;6.70;;;17.70;99.90;;;;;;5089089;28;20568;-66
2023/08/13 02:13:09;;;;;;;8.97;7.00;;;17.60;99.90;;;;;;5090026;28;20543;-66
2023/08/13 02:15:36;;;;;;;6.53;6.03;;;17.70;99.90;;;;;;5090251;28;20568;-66
2023/08/13 02:18:03;;;;;;;8.43;6.70;;;17.60;99.90;;;;;;5089129;28;20545;-66
2023/08/13 02:20:30;;;;;;;6.53;6.03;;;17.60;99.90;;;;;;5090540;28;20442;-66
2023/08/13 02:22:57;;;;;;;9.53;6.60;;;17.60;99.90;;;;;;5088804;28;20448;-66
2023/08/13 02:25:24;;;;;;;6.77;6.17;;;17.60;99.90;;;;;;5090132;28;20556;-66
2023/08/13 02:27:51;;;;;;;8.40;7.07;;;17.50;99.90;;;;;;5089121;28;20484;-66
2023/08/13 02:30:19;;;;;;;7.63;6.87;;;17.50;99.90;;;;;;5089768;28;20585;-66
2023/08/13 02:32:46;;;;;;;7.83;7.00;;;17.50;99.90;;;;;;5087920;28;21009;-66
2023/08/13 02:35:13;;;;;;;7.33;6.70;;;17.50;99.90;;;;;;5089672;28;20559;-66
2023/08/13 02:37:40;;;;;;;7.00;6.43;;;17.40;99.90;;;;;;5083965;28;20531;-66
2023/08/13 02:40:08;;;;;;;7.93;7.13;;;17.40;99.90;;;;;;5089911;28;20534;-67
2023/08/13 02:42:35;;;;;;;10.80;6.50;;;17.40;99.90;;;;;;5088604;28;20536;-66
2023/08/13 02:45:01;;;;;;;8.27;7.47;;;17.40;99.90;;;;;;5089884;28;20544;-66
2023/08/13 02:47:30;;;;;;;7.60;6.90;;;17.40;99.90;;;;;;5088589;28;20493;-66
2023/08/13 02:49:57;;;;;;;7.60;7.10;;;17.30;99.90;;;;;;5088145;28;20573;-66
2023/08/13 02:52:23;;;;;;;7.80;6.17;;;17.30;99.90;;;;;;5087612;28;20541;-67
2023/08/13 02:54:50;;;;;;;8.63;7.37;;;17.30;99.90;;;;;;5086483;28;20508;-66
2023/08/13 02:57:17;;;;;;;7.10;6.47;;;17.30;99.90;;;;;;5088349;28;20536;-66
2023/08/13 02:59:44;;;;;;;7.63;5.53;;;17.30;99.90;;;;;;5087718;28;20571;-66
2023/08/13 03:02:11;;;;;;;7.33;6.07;;;17.30;99.90;;;;;;5089980;28;20857;-67
2023/08/13 03:04:39;;;;;;;7.17;6.57;;;17.30;99.90;;;;;;5088917;28;20561;-67
2023/08/13 03:07:06;;;;;;;7.17;5.80;;;17.30;99.90;;;;;;5083539;28;20534;-67
2023/08/13 03:09:33;;;;;;;6.30;5.80;;;17.30;99.90;;;;;;5086147;28;20584;-67
2023/08/13 03:12:00;;;;;;;6.80;6.30;;;17.20;99.90;;;;;;5077003;28;21027;-67
2023/08/13 03:14:27;;;;;;;8.83;6.43;;;17.20;99.90;;;;;;5088003;28;20514;-66
2023/08/13 03:16:54;;;;;;;6.57;5.97;;;17.20;99.90;;;;;;5085205;28;20530;-67
2023/08/13 03:19:21;;;;;;;8.10;6.60;;;17.20;99.90;;;;;;5088819;28;20546;-67
2023/08/13 03:21:49;;;;;;;6.37;5.77;;;17.20;99.90;;;;;;5089415;28;20571;-67
2023/08/13 03:24:16;;;;;;;7.47;6.57;;;17.20;99.90;;;;;;5088680;28;20536;-66
2023/08/13 03:26:43;;;;;;;6.53;5.97;;;17.10;99.90;;;;;;5086316;28;20532;-67
2023/08/13 03:29:10;;;;;;;6.20;5.63;;;17.10;99.90;;;;;;5084518;28;20499;-67
2023/08/13 03:31:36;;;;;;;9.00;6.03;;;17.10;99.90;;;;;;5089072;28;20559;-67
2023/08/13 03:34:04;;;;;;;8.30;6.37;;;17.10;99.90;;;;;;5087813;28;20540;-67
2023/08/13 03:36:31;;;;;;;8.57;6.63;;;17.10;99.90;;;;;;5085093;28;20533;-67
2023/08/13 03:38:59;;;;;;;7.03;6.47;;;17.10;99.90;;;;;;5087007;28;21153;-67
2023/08/13 03:41:26;;;;;;;7.67;6.70;;;17.10;99.90;;;;;;5089349;28;20450;-67
2023/08/13 03:43:53;;;;;;;10.60;6.97;;;17.10;99.90;;;;;;5088440;28;20484;-67
2023/08/13 03:46:19;;;;;;;7.77;6.57;;;17.10;99.90;;;;;;5088115;28;20551;-66
2023/08/13 03:48:46;;;;;;;7.40;6.13;;;17.10;99.90;;;;;;5088153;28;20611;-67
2023/08/13 03:51:13;;;;;;;8.07;7.27;;;17.10;99.90;;;;;;5088627;28;20575;-66
2023/08/13 03:53:40;;;;;;;12.97;6.73;;;17.10;99.90;;;;;;5087903;28;20545;-67
2023/08/13 03:56:09;;;;;;;10.13;7.20;;;17.10;99.90;;;;;;5087737;28;20562;-67
2023/08/13 03:58:37;;;;;;;7.97;6.80;;;17.10;99.90;;;;;;5086890;28;20532;-67
2023/08/13 04:01:05;;;;;;;7.87;6.47;;;17.20;99.90;;;;;;5088653;28;20514;-67
2023/08/13 04:03:32;;;;;;;7.10;6.30;;;17.20;99.90;;;;;;5079792;28;20488;-67
2023/08/13 04:05:59;;;;;;;7.23;6.63;;;17.20;99.90;;;;;;5087661;28;20542;-67
2023/08/13 04:08:26;;;;;;;8.27;6.93;;;17.20;99.90;;;;;;5079772;28;20538;-67
2023/08/13 04:10:53;;;;;;;6.40;5.90;;;17.20;99.90;;;;;;5087078;28;20575;-67
2023/08/13 04:13:21;;;;;;;7.07;6.43;;;17.20;99.90;;;;;;5087951;28;20544;-67
2023/08/13 04:15:48;;;;;;;7.97;7.17;;;17.20;99.90;;;;;;5088223;28;21068;-67
2023/08/13 04:18:15;;;;;;;10.03;6.40;;;17.20;99.90;;;;;;5087062;28;20458;-67
2023/08/13 04:20:42;;;;;;;6.90;6.30;;;17.20;99.90;;;;;;5088051;28;20927;-67
2023/08/13 04:23:09;;;;;;;7.83;7.03;;;17.20;99.90;;;;;;5087356;28;20558;-67
2023/08/13 04:25:36;;;;;;;8.00;6.33;;;17.20;99.90;;;;;;5088123;28;20555;-67
2023/08/13 04:28:03;;;;;;;7.93;7.23;;;17.20;99.90;;;;;;5077715;28;20552;-67
2023/08/13 04:30:31;;;;;;;7.23;6.57;;;17.20;99.90;;;;;;5087273;28;20571;-67
2023/08/13 04:32:58;;;;;;;6.27;5.77;;;17.20;99.90;;;;;;5084381;28;21494;-66
2023/08/13 04:35:25;;;;;;;10.77;6.80;;;17.20;99.90;;;;;;5085233;28;20533;-67
2023/08/13 04:37:53;;;;;;;7.03;6.17;;;17.20;99.90;;;;;;5087896;28;20487;-67
2023/08/13 04:40:20;;;;;;;6.87;6.17;;;17.20;99.90;;;;;;5087560;28;20551;-67
2023/08/13 04:42:47;;;;;;;10.10;6.00;;;17.20;99.90;;;;;;5088148;28;20487;-66
2023/08/13 04:45:15;;;;;;;7.83;6.70;;;17.20;99.90;;;;;;5087338;28;20521;-67
2023/08/13 04:47:44;;;;;;;8.20;7.40;;;17.20;99.90;;;;;;5083938;28;20464;-67
2023/08/13 04:50:11;;;;;;;8.90;6.00;;;17.20;99.90;;;;;;5091691;28;20603;-67
2023/08/13 04:52:38;;;;;;;5.87;5.30;;;17.30;99.90;;;;;;5090977;28;20540;-67
2023/08/13 04:55:05;;;;;;;7.07;6.37;;;17.30;99.90;;;;;;5084392;28;20571;-67
2023/08/13 04:57:32;;;;;;;7.90;7.33;;;17.30;99.90;;;;;;5091097;28;20523;-67
2023/08/13 05:00:00;;;;;;;6.60;6.03;;;17.30;99.90;;;;;;5090704;28;20564;-67
2023/08/13 05:02:27;;;;;;;7.47;6.90;;;17.30;99.90;;;;;;5092203;28;20892;-67
2023/08/13 05:04:55;;;;;;;8.73;7.00;;;17.40;99.90;;;;;;5091125;28;20551;-67
2023/08/13 05:07:22;;;;;;;7.70;5.33;;;17.40;99.90;;;;;;5083766;28;20536;-67
2023/08/13 05:09:49;;;;;;;6.77;5.93;;;17.40;99.90;;;;;;5090702;28;20540;-67
2023/08/13 05:12:16;;;;;;;7.00;5.60;;;17.40;99.90;;;;;;5091336;28;20460;-67
2023/08/13 05:14:43;;;;;;;5.27;4.83;;;17.50;99.90;;;;;;5091177;28;20909;-66
2023/08/13 05:17:19;;;;;;;6.07;5.20;;;17.50;99.90;;;;;;5090927;28;20535;-67
2023/08/13 05:19:46;;;;;;;5.87;5.27;;;17.60;99.90;;;;;;5086213;28;20543;-67
2023/08/13 05:22:15;;;;;;;6.30;5.60;;;17.60;99.90;;;;;;5090442;28;20481;-66
2023/08/13 05:24:42;;;;;;;8.33;6.40;;;17.60;99.90;;;;;;5090753;28;20568;-66
2023/08/13 05:27:09;;;;;;;6.83;6.10;;;17.80;99.90;;;;;;5091099;28;20535;-66
2023/08/13 05:29:36;;;;;;;8.30;5.60;;;17.80;99.90;;;;;;5088824;28;20541;-67
2023/08/13 05:32:03;;;;;;;5.70;5.20;;;17.80;99.90;;;;;;5113676;22;20591;-63
2023/08/13 05:34:29;;;;;;;8.73;6.20;;;17.90;99.90;;;;;;5090868;28;20458;-63
2023/08/13 05:36:56;;;;;;;6.23;5.83;;;17.90;99.90;;;;;;5090625;28;20532;-62
2023/08/13 05:39:25;;;;;;;7.40;6.80;;;18.00;99.90;;;;;;5090895;28;20541;-63
2023/08/13 05:41:52;;;;;;;7.37;6.83;;;18.10;99.90;;;;;;5091261;28;20491;-63
2023/08/13 05:44:18;;;;;;;7.13;5.77;;;18.10;99.90;;;;;;5085404;28;20544;-62
2023/08/13 05:46:45;;;;;;;8.50;7.70;;;18.10;99.90;;;;;;5090464;28;20528;-63
2023/08/13 05:49:12;;;;;;;8.47;7.67;;;18.20;99.90;;;;;;5085505;28;20528;-63
2023/08/13 05:51:39;;;;;;;7.40;6.70;;;18.20;99.90;;;;;;5090579;28;21051;-63
2023/08/13 05:54:08;;;;;;;6.33;5.83;;;18.20;99.90;;;;;;5089444;28;20993;-61
2023/08/13 05:56:37;;;;;;;7.13;6.43;;;18.30;99.90;;;;;;5090231;28;20876;-61
2023/08/13 05:59:04;;;;;;;7.80;7.17;;;18.40;99.90;;;;;;5088223;28;20532;-61
2023/08/13 06:01:31;;;;;;;6.63;6.13;;;18.40;99.90;;;;;;5090758;28;20508;-61
2023/08/13 06:03:58;;;;;;;6.20;5.70;;;18.40;99.90;;;;;;5087826;28;20523;-61
2023/08/13 06:06:25;;;;;;;6.40;5.90;;;18.50;99.90;;;;;;5089507;28;20557;-61
2023/08/13 06:08:51;;;;;;;6.50;6.00;;;18.50;99.90;;;;;;5088368;28;20543;-61
2023/08/13 06:11:18;;;;;;;7.37;5.77;;;18.60;99.90;;;;;;5089654;28;20615;-61
2023/08/13 06:13:47;;;;;;;6.23;5.83;;;18.70;99.90;;;;;;5090709;28;21028;-60
2023/08/13 06:16:14;;;;;;;7.00;6.40;;;18.70;99.90;;;;;;5089447;28;20541;-60
2023/08/13 06:18:41;;;;;;;7.77;7.17;;;18.80;99.90;;;;;;5090680;28;20453;-61
2023/08/13 06:21:08;;;;;;;6.63;6.23;;;18.90;99.90;;;;;;5088493;28;20541;-61
2023/08/13 06:23:35;;;;;;;6.70;6.10;;;19.00;99.90;;;;;;5090723;28;20966;-61
2023/08/13 06:26:02;;;;;;;10.47;7.33;;;19.10;99.90;;;;;;5087449;28;20887;-61
2023/08/13 06:28:29;;;;;;;8.53;7.73;;;19.20;99.90;;;;;;5090440;28;20526;-61
2023/08/13 06:30:57;;;;;;;8.10;7.27;;;19.40;99.90;;;;;;5089343;28;20584;-61
2023/08/13 06:33:24;;;;;;;15.80;8.90;;;19.50;99.90;;;;;;5090777;28;20541;-61
2023/08/13 06:35:51;;;;;;;11.00;9.60;;;19.60;99.90;;;;;;5086026;28;20730;-61
2023/08/13 06:38:18;;;;;;;11.33;9.67;;;19.70;99.90;;;;;;5089829;28;20530;-61
2023/08/13 06:40:45;;;;;;;21.70;10.57;;;19.80;99.90;;;;;;5089476;28;20537;-61
2023/08/13 06:43:13;;;;;;;11.87;10.77;;;19.90;99.90;;;;;;5090390;28;20541;-61
2023/08/13 06:45:40;;;;;;;14.63;9.50;;;20.00;99.90;;;;;;5089300;28;20461;-61
2023/08/13 06:48:08;;;;;;;16.77;9.67;;;20.00;99.90;;;;;;5089059;28;20538;-61
2023/08/13 06:50:35;;;;;;;9.70;8.70;;;20.10;99.90;;;;;;5081503;28;20574;-61
2023/08/13 06:53:02;;;;;;;12.00;9.43;;;20.20;99.90;;;;;;5086277;28;20503;-61
2023/08/13 06:55:29;;;;;;;10.47;8.47;;;20.20;99.90;;;;;;5089266;28;20489;-61
2023/08/13 06:57:56;;;;;;;9.07;8.27;;;20.30;99.90;;;;;;5088260;28;20521;-61
2023/08/13 07:00:23;;;;;;;10.33;9.00;;;20.40;99.90;;;;;;5089292;28;20550;-61
2023/08/13 07:02:50;;;;;;;9.57;8.50;;;20.50;99.90;;;;;;5089770;28;20463;-61
2023/08/13 07:05:19;;;;;;;9.30;8.50;;;20.50;99.90;;;;;;5087760;28;20946;-61
2023/08/13 07:07:46;;;;;;;10.03;8.67;;;20.60;99.90;;;;;;5088930;28;20539;-61
2023/08/13 07:10:13;;;;;;;8.57;7.50;;;20.60;99.90;;;;;;5088580;28;20463;-61
2023/08/13 07:12:40;;;;;;;7.63;6.90;;;20.70;99.90;;;;;;5088637;28;20574;-61
2023/08/13 07:15:07;;;;;;;8.00;7.13;;;20.80;99.90;;;;;;5089195;28;20459;-61
2023/08/13 07:17:34;;;;;;;8.43;7.37;;;20.90;99.90;;;;;;5089134;28;20486;-61
2023/08/13 07:20:05;;;;;;;7.20;6.60;;;21.00;99.90;;;;;;5089133;28;20452;-61
2023/08/13 07:22:33;;;;;;;6.90;6.40;;;21.10;99.90;;;;;;5089436;28;20519;-61
2023/08/13 07:25:00;;;;;;;8.57;7.13;;;21.10;99.90;;;;;;5088951;28;20540;-61
2023/08/13 07:27:27;;;;;;;7.03;6.50;;;21.30;99.90;;;;;;5088303;28;20546;-61
2023/08/13 07:29:54;;;;;;;7.27;6.70;;;21.40;99.90;;;;;;5085202;28;20538;-61
2023/08/13 07:32:20;;;;;;;7.23;6.63;;;21.60;99.90;;;;;;5088416;28;20523;-61
2023/08/13 07:34:47;;;;;;;14.00;7.37;;;21.80;99.90;;;;;;5087835;28;20541;-61
2023/08/13 07:37:14;;;;;;;7.37;6.67;;;21.90;99.90;;;;;;5087418;28;20492;-61
2023/08/13 07:39:42;;;;;;;8.40;7.70;;;22.00;99.90;;;;;;5086580;28;20483;-61
2023/08/13 07:42:09;;;;;;;8.87;8.17;;;22.10;99.90;;;;;;5087290;28;21144;-60
2023/08/13 07:44:36;;;;;;;8.47;7.63;;;22.10;99.90;;;;;;5079646;28;20442;-61
2023/08/13 07:47:04;;;;;;;9.20;8.40;;;22.30;99.90;;;;;;5087707;28;21189;-61
2023/08/13 07:49:31;;;;;;;9.90;9.00;;;22.30;99.90;;;;;;5087875;28;21021;-61
2023/08/13 07:51:58;;;;;;;11.17;9.50;;;22.40;99.90;;;;;;5086811;28;20492;-61
2023/08/13 07:54:25;;;;;;;11.30;10.20;;;22.50;99.90;;;;;;5087932;28;20542;-61
2023/08/13 07:56:53;;;;;;;11.90;10.70;;;22.50;99.90;;;;;;5087549;28;20534;-60
2023/08/13 07:59:20;;;;;;;11.80;10.70;;;22.60;99.90;;;;;;5087549;28;20454;-61
2023/08/13 08:01:47;;;;;;;10.60;9.50;;;22.60;99.90;;;;;;5087668;28;20473;-60
2023/08/13 08:04:14;;;;;;;9.47;8.60;;;22.60;99.90;;;;;;5082764;28;20551;-61
2023/08/13 08:06:41;;;;;;;12.10;11.10;;;22.60;99.90;;;;;;5087282;28;20457;-59
2023/08/13 08:09:08;;;;;;;10.97;9.97;;;22.60;99.90;;;;;;5083846;28;20954;-60
2023/08/13 08:11:35;;;;;;;9.50;8.60;;;22.60;99.90;;;;;;5087028;28;20576;-61
2023/08/13 08:14:04;;;;;;;11.20;10.20;;;22.60;99.90;;;;;;5087583;28;21048;-60
2023/08/13 08:16:31;;;;;;;11.87;10.67;;;22.80;99.90;;;;;;5087412;28;20454;-61
2023/08/13 08:18:58;;;;;;;10.90;9.57;;;22.90;99.90;;;;;;5087388;28;20530;-61
2023/08/13 08:21:25;;;;;;;8.80;7.93;;;23.00;99.90;;;;;;5087610;28;20468;-61
2023/08/13 08:23:52;;;;;;;9.40;8.60;;;23.00;99.90;;;;;;5078926;28;20577;-61
2023/08/13 08:26:18;;;;;;;9.70;8.80;;;23.10;99.90;;;;;;5085888;28;21017;-61
2023/08/13 08:28:45;;;;;;;9.20;8.40;;;23.10;99.90;;;;;;5087700;28;20538;-61
2023/08/13 08:31:14;;;;;;;9.87;8.87;;;23.20;99.90;;;;;;5086224;28;20569;-59
2023/08/13 08:33:41;;;;;;;9.10;8.40;;;23.30;99.90;;;;;;5087302;28;20519;-60
2023/08/13 08:36:08;;;;;;;7.97;7.27;;;23.40;99.90;;;;;;5085301;28;20541;-61
2023/08/13 08:38:34;;;;;;;8.90;8.17;;;23.40;99.90;;;;;;5085748;28;20554;-60
2023/08/13 08:41:01;;;;;;;8.17;7.43;;;23.50;99.90;;;;;;5083668;28;20577;-61
2023/08/13 08:43:31;;;;;;;10.30;9.27;;;23.40;99.90;;;;;;5085943;28;20458;-61
2023/08/13 08:45:58;;;;;;;9.37;8.50;;;23.40;99.90;;;;;;5082936;28;20463;-61
2023/08/13 08:48:28;;;;;;;8.80;8.03;;;23.40;99.90;;;;;;5086183;28;20451;-61
2023/08/13 08:50:55;;;;;;;9.53;8.63;;;23.40;99.90;;;;;;5080720;28;20474;-61
2023/08/13 08:53:22;;;;;;;7.27;6.77;;;23.50;99.90;;;;;;5085527;28;20478;-60
2023/08/13 08:55:49;;;;;;;8.47;7.77;;;23.60;99.90;;;;;;5086846;28;20513;-60
2023/08/13 08:58:16;;;;;;;8.10;7.50;;;23.80;99.90;;;;;;5085572;28;20542;-61
2023/08/13 09:00:43;;;;;;;7.63;6.93;;;23.80;99.90;;;;;;5086623;28;20499;-60
2023/08/13 09:03:11;;;;;;;7.30;6.70;;;23.90;99.90;;;;;;5086167;28;20933;-60
2023/08/13 09:05:39;;;;;;;7.67;7.07;;;24.00;99.90;;;;;;5086440;28;20496;-61
2023/08/13 09:08:10;;;;;;;7.73;7.00;;;24.10;99.90;;;;;;5085750;28;20558;-59
2023/08/13 09:10:37;;;;;;;9.53;5.80;;;24.10;99.90;;;;;;5086645;28;20461;-61
2023/08/13 09:13:05;;;;;;;6.47;5.97;;;24.10;99.90;;;;;;5086368;28;20582;-61
2023/08/13 09:15:32;;;;;;;7.27;6.67;;;24.10;99.90;;;;;;5086747;28;20529;-61
2023/08/13 09:18:00;;;;;;;6.30;5.90;;;24.10;99.90;;;;;;5085315;28;20901;-60
2023/08/13 09:20:27;;;;;;;8.57;7.27;;;24.20;99.90;;;;;;5086350;28;20450;-61
2023/08/13 09:23:00;;;;;;;6.30;5.80;;;24.20;99.90;;;;;;5085554;28;20554;-60
2023/08/13 09:25:27;;;;;;;6.40;5.90;;;24.20;99.90;;;;;;5086703;28;21299;-61
2023/08/13 09:27:54;;;;;;;5.80;5.50;;;24.20;99.90;;;;;;5084009;28;20448;-60
2023/08/13 09:30:28;;;;;;;5.90;5.50;;;24.20;99.90;;;;;;5086451;28;20943;-61
2023/08/13 09:32:56;;;;;;;6.53;6.03;;;24.30;99.90;;;;;;5088023;28;20583;-61
2023/08/13 09:35:23;;;;;;;6.30;5.90;;;24.30;99.90;;;;;;5090489;28;20928;-61
2023/08/13 09:37:50;;;;;;;6.80;6.20;;;24.30;99.90;;;;;;5089199;28;20465;-60
2023/08/13 09:40:18;;;;;;;6.40;5.90;;;24.30;99.90;;;;;;5084563;28;20917;-61
2023/08/13 09:42:46;;;;;;;6.13;5.70;;;24.40;99.90;;;;;;5089341;28;20848;-61
2023/08/13 09:45:17;;;;;;;6.50;5.80;;;24.50;99.90;;;;;;5090005;28;20547;-61
2023/08/13 09:47:48;;;;;;;6.93;6.23;;;24.60;99.90;;;;;;5089210;28;21140;-61
2023/08/13 09:50:18;;;;;;;6.37;5.93;;;24.70;99.90;;;;;;5089889;28;20540;-61
2023/08/13 09:52:47;;;;;;;6.60;5.00;;;24.70;99.90;;;;;;5089866;28;20487;-61
2023/08/13 09:55:16;;;;;;;5.63;5.10;;;24.80;99.90;;;;;;5090107;28;20448;-61
2023/08/13 09:57:46;;;;;;;5.10;4.60;;;24.80;99.90;;;;;;5089506;28;20520;-60
2023/08/13 10:00:14;;;;;;;6.00;5.60;;;24.80;99.90;;;;;;5089724;28;20461;-61
2023/08/13 10:02:41;;;;;;;4.80;4.50;;;24.80;99.90;;;;;;5089699;28;20533;-61
2023/08/13 10:05:09;;;;;;;5.27;4.77;;;24.80;99.90;;;;;;5089899;28;20447;-61
2023/08/13 10:07:37;;;;;;;5.17;4.77;;;24.90;99.90;;;;;;5072993;28;20901;-61
2023/08/13 10:10:05;;;;;;;4.63;4.33;;;24.90;99.90;;;;;;5089713;28;20998;-61
2023/08/13 10:12:32;;;;;;;5.20;4.80;;;24.90;99.90;;;;;;5089193;28;20493;-61
2023/08/13 10:15:01;;;;;;;4.63;4.23;;;24.90;99.90;;;;;;5089809;28;20474;-60
2023/08/13 10:17:28;;;;;;;4.43;4.13;;;24.90;99.90;;;;;;5089152;28;20454;-61
2023/08/13 10:19:56;;;;;;;4.63;4.27;;;24.90;99.90;;;;;;5089704;28;20464;-59
2023/08/13 10:22:32;;;;;;;4.20;3.90;;;24.80;99.90;;;;;;5083850;28;20456;-61
2023/08/13 10:24:59;;;;;;;5.20;4.57;;;25.00;99.90;;;;;;5089595;28;20452;-60
2023/08/13 10:27:27;;;;;;;6.70;6.10;;;25.00;99.90;;;;;;5088855;28;20448;-61
2023/08/13 10:30:08;;;;;;;4.17;3.87;;;25.00;99.90;;;;;;5089307;28;20558;-61
2023/08/13 10:32:38;;;;;;;4.00;3.70;;;25.10;99.90;;;;;;5088583;28;20940;-60
2023/08/13 10:35:20;;;;;;;3.80;3.50;;;25.10;99.90;;;;;;5089985;28;20485;-61
2023/08/13 10:37:51;;;;;;;4.50;4.10;;;25.30;99.90;;;;;;5080537;28;20445;-60
2023/08/13 10:40:19;;;;;;;3.87;3.57;;;25.30;99.90;;;;;;5089563;28;20443;-61
2023/08/13 10:42:48;;;;;;;3.73;3.43;;;25.30;99.90;;;;;;5090824;28;20467;-61
2023/08/13 10:45:17;;;;;;;5.10;4.70;;;25.30;99.90;;;;;;5088614;28;20443;-61
2023/08/13 10:47:50;;;;;;;3.70;3.50;;;25.20;99.90;;;;;;5088168;28;20861;-61
2023/08/13 10:50:28;;;;;;;3.87;3.53;;;25.30;99.90;;;;;;5088681;28;20495;-61
2023/08/13 10:53:01;;;;;;;5.20;3.70;;;25.30;99.90;;;;;;5079175;28;20954;-60
2023/08/13 10:55:29;;;;;;;4.50;4.20;;;25.30;99.90;;;;;;5088020;28;20447;-61
2023/08/13 10:57:56;;;;;;;3.43;3.13;;;25.30;99.90;;;;;;5087913;28;20542;-61
2023/08/13 11:00:26;;;;;;;3.80;3.50;;;25.40;99.90;;;;;;5088702;28;20449;-61
2023/08/13 11:02:53;;;;;;;4.27;3.97;;;25.40;99.90;;;;;;5088875;28;20907;-61
2023/08/13 11:05:21;;;;;;;3.90;3.60;;;25.40;99.90;;;;;;5088636;28;21016;-61
2023/08/13 11:07:48;;;;;;;4.60;4.20;;;25.40;99.90;;;;;;5087958;28;20567;-61
2023/08/13 11:10:18;;;;;;;4.70;4.40;;;25.40;99.90;;;;;;5088402;28;20487;-61
2023/08/13 11:12:46;;;;;;;5.07;4.67;;;25.40;99.90;;;;;;5085243;28;20493;-61
2023/08/13 11:15:13;;;;;;;4.33;4.03;;;25.50;99.90;;;;;;5084723;28;20543;-61
2023/08/13 11:17:46;;;;;;;4.00;3.70;;;25.50;99.90;;;;;;5087566;28;20907;-61
2023/08/13 11:20:14;;;;;;;3.70;3.50;;;25.60;99.90;;;;;;5088130;28;20921;-61
2023/08/13 11:22:41;;;;;;;4.23;3.93;;;25.60;99.90;;;;;;5087811;28;20553;-60
2023/08/13 11:25:09;;;;;;;4.20;3.90;;;25.60;99.90;;;;;;5088360;28;20535;-61
2023/08/13 11:27:36;;;;;;;4.10;3.40;;;25.70;99.90;;;;;;5070748;28;20956;-60
2023/08/13 11:30:04;;;;;;;4.20;3.90;;;25.70;99.90;;;;;;5088488;28;20525;-61
2023/08/13 11:32:31;;;;;;;5.00;4.60;;;25.80;99.90;;;;;;5087993;28;20491;-61
2023/08/13 11:35:00;;;;;;;3.80;3.37;;;26.00;99.90;;;;;;5087927;28;20825;-61
2023/08/13 11:37:27;;;;;;;4.60;4.20;;;26.00;99.90;;;;;;5087065;28;20450;-61
2023/08/13 11:39:54;;;;;;;3.90;3.47;;;26.00;99.90;;;;;;5087560;28;20448;-61
2023/08/13 11:42:21;;;;;;;4.50;4.10;;;26.10;99.90;;;;;;5087517;28;20540;-61
2023/08/13 11:44:50;;;;;;;3.30;3.00;;;26.10;99.90;;;;;;5087447;28;20450;-61
2023/08/13 11:47:25;;;;;;;2.90;2.70;;;26.20;99.90;;;;;;5086842;28;20754;-61
2023/08/13 11:49:54;;;;;;;3.80;3.27;;;26.20;99.90;;;;;;5087232;28;20468;-61
2023/08/13 11:52:23;;;;;;;3.40;3.20;;;26.30;99.90;;;;;;5087385;28;20491;-61
2023/08/13 11:54:50;;;;;;;3.23;3.03;;;26.30;99.90;;;;;;5086758;28;20452;-60
2023/08/13 11:57:17;;;;;;;3.20;3.00;;;26.30;99.90;;;;;;5086792;28;20538;-61
2023/08/13 11:59:47;;;;;;;3.30;3.00;;;26.30;99.90;;;;;;5087593;28;20452;-61
2023/08/13 12:02:14;;;;;;;3.67;3.37;;;26.30;99.90;;;;;;5087388;28;20627;-61
2023/08/13 12:04:45;;;;;;;4.10;3.80;;;26.20;99.90;;;;;;5087315;28;20459;-61
2023/08/13 12:07:12;;;;;;;5.33;4.00;;;26.30;99.90;;;;;;5086131;28;20539;-61
2023/08/13 12:09:40;;;;;;;4.90;4.37;;;26.30;99.90;;;;;;5087670;28;20532;-61
2023/08/13 12:12:07;;;;;;;3.70;3.40;;;26.40;99.90;;;;;;5087378;28;20464;-61
2023/08/13 12:14:42;;;;;;;3.97;3.60;;;26.40;99.90;;;;;;5086997;28;20484;-61
2023/08/13 12:17:08;;;;;;;2.70;2.50;;;26.50;99.90;;;;;;5086438;28;20458;-61
2023/08/13 12:19:35;;;;;;;3.13;2.83;;;26.40;99.90;;;;;;5070292;28;20440;-61
2023/08/13 12:22:02;;;;;;;3.30;3.10;;;26.30;99.90;;;;;;5086266;28;20478;-61
2023/08/13 12:24:29;;;;;;;4.20;3.80;;;26.20;99.90;;;;;;5086831;28;20884;-60
2023/08/13 12:26:58;;;;;;;3.53;3.03;;;26.10;99.90;;;;;;5080476;28;20446;-61
2023/08/13 12:29:24;;;;;;;3.57;3.37;;;26.10;99.90;;;;;;5086876;28;20443;-61
2023/08/13 12:31:51;;;;;;;3.87;3.57;;;26.10;99.90;;;;;;5086835;28;20478;-61
2023/08/13 12:34:18;;;;;;;3.13;2.83;;;26.00;99.90;;;;;;5086543;28;20491;-61
2023/08/13 12:36:45;;;;;;;3.20;3.00;;;26.00;99.90;;;;;;5086283;28;20557;-60
2023/08/13 12:39:12;;;;;;;2.57;2.40;;;26.10;99.90;;;;;;5087210;28;20520;-59
2023/08/13 12:41:38;;;;;;;4.27;3.23;;;26.10;99.90;;;;;;5087419;28;20465;-61
2023/08/13 12:44:07;;;;;;;3.80;3.50;;;26.20;99.90;;;;;;5087109;28;20532;-61
2023/08/13 12:46:34;;;;;;;3.50;3.30;;;26.20;99.90;;;;;;5086655;28;20460;-60
2023/08/13 12:49:01;;;;;;;3.37;3.00;;;26.30;99.90;;;;;;5087232;28;20481;-61